createdAt,value
2019-05-09T00:01:14.173Z,3.07
2019-05-09T00:03:44.274Z,2.67
2019-05-09T00:06:13.694Z,2.23
2019-05-09T00:08:44.139Z,2.70
2019-05-09T00:11:14.704Z,2.80
2019-05-09T00:13:43.571Z,2.63
2019-05-09T00:16:14.587Z,3.20
2019-05-09T00:18:44.114Z,2.50
2019-05-09T00:21:17.389Z,2.40
2019-05-09T00:23:45.951Z,2.77
2019-05-09T00:26:14.561Z,2.83
2019-05-09T00:28:44.757Z,2.33
2019-05-09T00:31:24.005Z,2.60
2019-05-09T00:33:54.216Z,2.67
2019-05-09T00:36:23.225Z,3.07
2019-05-09T00:38:53.675Z,2.40
2019-05-09T00:41:23.909Z,3.20
2019-05-09T00:44:03.468Z,2.30
2019-05-09T00:46:34.135Z,3.03
2019-05-09T00:49:07.023Z,2.30
2019-05-09T00:51:35.621Z,3.20
2019-05-09T00:54:04.437Z,2.43
2019-05-09T00:56:33.251Z,3.10
2019-05-09T00:59:03.592Z,2.20
2019-05-09T01:01:34.055Z,2.67
2019-05-09T01:04:04.324Z,2.57
2019-05-09T01:06:33.981Z,2.30
2019-05-09T01:09:04.245Z,2.47
2019-05-09T01:11:33.384Z,2.33
2019-05-09T01:14:03.619Z,2.60
2019-05-09T01:16:33.470Z,2.63
2019-05-09T01:19:03.576Z,2.20
2019-05-09T01:21:33.373Z,2.80
2019-05-09T01:24:03.392Z,2.83
2019-05-09T01:26:33.369Z,2.83
2019-05-09T01:29:04.131Z,3.00
2019-05-09T01:31:33.232Z,2.80
2019-05-09T01:34:04.224Z,3.00
2019-05-09T01:36:51.031Z,2.93
2019-05-09T01:39:19.598Z,3.03
2019-05-09T01:41:48.098Z,3.40
2019-05-09T01:44:16.662Z,2.90
2019-05-09T01:46:45.156Z,3.13
2019-05-09T01:49:13.965Z,2.93
2019-05-09T01:51:44.486Z,3.40
2019-05-09T01:54:13.319Z,3.00
2019-05-09T01:56:43.054Z,3.53
2019-05-09T01:59:13.734Z,2.80
2019-05-09T02:01:43.452Z,3.40
2019-05-09T02:04:13.755Z,3.37
2019-05-09T02:06:44.069Z,3.50
2019-05-09T02:09:14.047Z,3.23
2019-05-09T02:11:45.556Z,3.30
2019-05-09T02:14:14.805Z,3.13
2019-05-09T02:17:03.479Z,3.23
2019-05-09T02:19:43.938Z,3.10
2019-05-09T02:22:30.707Z,3.20
2019-05-09T02:24:59.291Z,2.93
2019-05-09T02:27:27.833Z,3.80
2019-05-09T02:29:56.402Z,3.00
2019-05-09T02:32:24.901Z,3.30
2019-05-09T02:34:54.776Z,2.97
2019-05-09T02:37:23.536Z,3.10
2019-05-09T02:39:52.104Z,3.60
2019-05-09T02:42:20.597Z,2.70
2019-05-09T02:44:49.456Z,2.83
2019-05-09T02:47:19.778Z,3.03
2019-05-09T02:49:48.681Z,2.67
2019-05-09T02:52:19.717Z,3.00
2019-05-09T02:54:49.959Z,2.37
2019-05-09T02:57:18.545Z,3.37
2019-05-09T02:59:49.396Z,2.87
2019-05-09T03:02:29.020Z,3.07
2019-05-09T03:04:58.311Z,2.93
2019-05-09T03:07:48.352Z,2.50
2019-05-09T03:10:15.395Z,3.20
2019-05-09T03:12:43.946Z,2.73
2019-05-09T03:15:12.585Z,3.00
2019-05-09T03:17:41.088Z,2.60
2019-05-09T03:20:11.397Z,2.60
2019-05-09T03:22:39.874Z,2.50
2019-05-09T03:25:09.180Z,3.03
2019-05-09T03:27:39.426Z,2.50
2019-05-09T03:30:11.942Z,2.80
2019-05-09T03:32:40.231Z,3.37
2019-05-09T03:35:09.242Z,2.80
2019-05-09T03:37:37.899Z,2.90
2019-05-09T03:40:07.868Z,2.77
2019-05-09T03:42:43.400Z,2.70
2019-05-09T03:45:08.979Z,2.93
2019-05-09T03:47:39.212Z,2.33
2019-05-09T03:50:17.473Z,2.40
2019-05-09T03:52:47.601Z,2.57
2019-05-09T03:55:17.990Z,2.87
2019-05-09T03:58:07.490Z,2.50
2019-05-09T04:00:37.557Z,2.13
2019-05-09T04:03:08.190Z,2.70
2019-05-09T04:05:37.693Z,2.43
2019-05-09T04:08:19.104Z,2.70
2019-05-09T04:10:50.187Z,2.73
2019-05-09T04:13:20.821Z,2.90
2019-05-09T04:15:49.395Z,2.70
2019-05-09T04:18:17.953Z,2.97
2019-05-09T04:20:48.224Z,3.00
2019-05-09T04:23:18.632Z,3.10
2019-05-09T04:25:58.172Z,3.50
2019-05-09T04:28:27.781Z,2.80
2019-05-09T04:30:58.134Z,2.83
2019-05-09T04:33:27.959Z,2.90
2019-05-09T04:35:57.960Z,2.90
2019-05-09T04:38:28.213Z,2.80
2019-05-09T04:40:58.354Z,2.87
2019-05-09T04:43:35.302Z,3.30
2019-05-09T04:46:02.010Z,3.37
2019-05-09T04:48:31.186Z,3.13
2019-05-09T04:51:04.542Z,2.90
2019-05-09T04:53:33.435Z,2.80
2019-05-09T04:56:09.868Z,3.57
2019-05-09T04:58:41.189Z,3.20
2019-05-09T05:01:19.622Z,3.37
2019-05-09T05:03:48.416Z,3.10
2019-05-09T05:06:20.323Z,3.00
2019-05-09T05:08:47.922Z,3.33
2019-05-09T05:11:17.830Z,3.40
2019-05-09T05:13:48.182Z,3.00
2019-05-09T05:16:18.422Z,3.37
2019-05-09T05:18:47.823Z,2.70
2019-05-09T05:21:19.983Z,2.70
2019-05-09T05:23:48.372Z,3.13
2019-05-09T05:26:18.332Z,3.40
2019-05-09T05:28:47.450Z,2.97
2019-05-09T05:31:18.047Z,3.20
2019-05-09T05:33:51.229Z,3.40
2019-05-09T05:36:19.861Z,3.67
2019-05-09T05:38:48.486Z,3.60
2019-05-09T05:41:18.337Z,3.30
2019-05-09T05:43:47.907Z,3.50
2019-05-09T05:46:18.397Z,3.73
2019-05-09T05:48:48.635Z,3.67
2019-05-09T05:51:18.413Z,5.07
2019-05-09T05:53:48.096Z,4.10
2019-05-09T05:56:17.637Z,4.00
2019-05-09T05:58:48.790Z,3.67
2019-05-09T06:01:18.699Z,3.27
2019-05-09T06:03:48.133Z,3.30
2019-05-09T06:06:18.422Z,3.73
2019-05-09T06:08:48.545Z,3.10
2019-05-09T06:11:17.842Z,2.70
2019-05-09T06:13:54.365Z,3.00
2019-05-09T06:16:19.143Z,2.70
2019-05-09T06:18:48.060Z,2.20
2019-05-09T06:21:34.729Z,3.17
2019-05-09T06:24:03.314Z,2.80
2019-05-09T06:26:31.921Z,2.63
2019-05-09T06:29:00.496Z,2.60
2019-05-09T06:31:29.092Z,1.90
2019-05-09T06:33:57.963Z,2.30
2019-05-09T06:36:28.358Z,1.47
2019-05-09T06:38:58.852Z,2.13
2019-05-09T06:41:28.512Z,1.77
2019-05-09T06:44:13.173Z,1.90
2019-05-09T06:46:30.929Z,1.90
2019-05-09T06:49:19.927Z,1.93
2019-05-09T06:51:32.379Z,1.73
2019-05-09T06:54:00.969Z,2.10
2019-05-09T06:56:29.518Z,1.50
2019-05-09T06:58:58.394Z,1.53
2019-05-09T07:01:28.725Z,1.70
2019-05-09T07:04:11.042Z,1.40
2019-05-09T07:06:58.827Z,1.30
2019-05-09T07:09:38.479Z,1.90
2019-05-09T07:12:07.866Z,1.50
2019-05-09T07:14:40.991Z,1.30
2019-05-09T07:17:08.368Z,1.60
2019-05-09T07:19:38.378Z,1.60
2019-05-09T07:22:18.589Z,1.80
2019-05-09T07:25:09.334Z,1.33
2019-05-09T07:27:35.703Z,1.77
2019-05-09T07:30:24.381Z,1.37
2019-05-09T07:32:57.983Z,1.90
2019-05-09T07:35:27.824Z,1.47
2019-05-09T07:37:57.847Z,2.13
2019-05-09T07:40:30.277Z,1.50
2019-05-09T07:42:58.368Z,1.93
2019-05-09T07:45:28.127Z,1.80
2019-05-09T07:47:58.331Z,1.83
2019-05-09T07:50:27.807Z,1.60
2019-05-09T07:52:58.214Z,1.63
2019-05-09T07:55:27.503Z,1.50
2019-05-09T07:57:58.727Z,1.87
2019-05-09T08:00:34.374Z,1.30
2019-05-09T08:03:02.986Z,1.60
2019-05-09T08:05:31.811Z,1.50
2019-05-09T08:08:00.385Z,2.23
2019-05-09T08:10:32.966Z,1.60
2019-05-09T08:12:59.167Z,1.60
2019-05-09T08:15:28.168Z,2.07
2019-05-09T08:17:59.210Z,2.30
2019-05-09T08:20:27.842Z,1.93
2019-05-09T08:23:01.368Z,1.40
2019-05-09T08:25:27.747Z,1.80
2019-05-09T08:27:58.704Z,1.90
2019-05-09T08:30:33.036Z,2.27
2019-05-09T08:32:59.641Z,1.70
2019-05-09T08:35:27.914Z,2.50
2019-05-09T08:37:58.249Z,2.10
2019-05-09T08:40:28.336Z,2.40
2019-05-09T08:42:58.756Z,2.57
2019-05-09T08:45:30.382Z,2.40
2019-05-09T08:47:57.839Z,2.57
2019-05-09T08:50:34.247Z,2.47
2019-05-09T08:53:07.999Z,2.60
2019-05-09T08:55:38.136Z,2.33
2019-05-09T08:58:07.984Z,3.20
2019-05-09T09:00:38.786Z,2.37
2019-05-09T09:03:08.346Z,2.53
2019-05-09T09:05:38.049Z,2.53
2019-05-09T09:08:08.289Z,2.33
2019-05-09T09:10:38.453Z,2.40
2019-05-09T09:13:08.959Z,1.90
2019-05-09T09:16:02.484Z,2.70
2019-05-09T09:18:08.783Z,2.70
2019-05-09T09:20:38.140Z,2.40
2019-05-09T09:23:08.936Z,2.20
2019-05-09T09:25:38.896Z,2.30
2019-05-09T09:28:08.806Z,1.87
2019-05-09T09:30:38.879Z,2.30
2019-05-09T09:33:11.353Z,1.83
2019-05-09T09:35:38.399Z,1.70
2019-05-09T09:38:09.053Z,2.20
2019-05-09T09:40:38.498Z,2.27
2019-05-09T09:43:09.280Z,1.60
2019-05-09T09:45:38.073Z,1.90
2019-05-09T09:48:08.904Z,1.40
2019-05-09T09:50:38.261Z,1.87
2019-05-09T09:53:08.703Z,1.50
2019-05-09T09:55:38.456Z,1.50
2019-05-09T09:58:08.131Z,1.77
2019-05-09T10:01:03.962Z,1.77
2019-05-09T10:03:33.757Z,1.50
2019-05-09T10:06:02.371Z,1.77
2019-05-09T10:08:31.011Z,1.50
2019-05-09T10:10:59.691Z,1.50
2019-05-09T10:13:28.672Z,1.43
2019-05-09T10:15:58.977Z,1.70
2019-05-09T10:18:29.215Z,1.80
2019-05-09T10:21:17.237Z,2.33
2019-05-09T10:23:48.130Z,1.73
2019-05-09T10:26:17.788Z,1.70
2019-05-09T10:28:48.400Z,1.70
2019-05-09T10:31:16.548Z,1.40
2019-05-09T10:33:45.196Z,2.10
2019-05-09T10:36:13.791Z,2.30
2019-05-09T10:38:42.360Z,2.13
2019-05-09T10:41:11.559Z,2.07
2019-05-09T10:43:42.025Z,2.00
2019-05-09T10:46:47.497Z,2.00
2019-05-09T10:49:00.382Z,1.83
2019-05-09T10:51:29.049Z,2.13
2019-05-09T10:53:58.731Z,1.77
2019-05-09T10:56:28.123Z,2.53
2019-05-09T10:58:58.449Z,2.37
2019-05-09T11:01:29.507Z,2.00
2019-05-09T11:03:58.895Z,1.37
2019-05-09T11:06:28.678Z,1.70
2019-05-09T11:08:58.527Z,1.90
2019-05-09T11:11:28.505Z,2.07
2019-05-09T11:13:58.599Z,2.70
2019-05-09T11:16:41.722Z,2.97
2019-05-09T11:18:58.663Z,2.77
2019-05-09T11:21:28.558Z,2.33
2019-05-09T11:23:58.381Z,2.57
2019-05-09T11:26:28.488Z,2.53
2019-05-09T11:28:58.762Z,2.70
2019-05-09T11:31:29.579Z,2.73
2019-05-09T11:33:58.155Z,3.17
2019-05-09T11:36:26.860Z,3.03
2019-05-09T11:38:56.570Z,2.87
2019-05-09T11:41:25.635Z,3.33
2019-05-09T11:43:54.169Z,3.30
2019-05-09T11:46:22.770Z,3.60
2019-05-09T11:48:51.349Z,3.90
2019-05-09T11:51:22.778Z,2.53
2019-05-09T11:53:50.139Z,2.47
2019-05-09T11:56:18.746Z,3.40
2019-05-09T11:58:48.112Z,2.80
2019-05-09T12:01:19.080Z,3.50
2019-05-09T12:03:49.958Z,3.10
2019-05-09T12:06:19.966Z,2.80
2019-05-09T12:08:48.313Z,2.70
2019-05-09T12:11:18.316Z,2.30
2019-05-09T12:13:48.647Z,3.80
2019-05-09T12:16:19.057Z,3.17
2019-05-09T12:18:48.879Z,3.30
2019-05-09T12:21:19.177Z,3.00
2019-05-09T12:23:49.081Z,2.97
2019-05-09T12:26:21.644Z,3.20
2019-05-09T12:28:50.470Z,3.13
2019-05-09T12:31:19.051Z,2.77
2019-05-09T12:33:48.536Z,2.40
2019-05-09T12:36:19.115Z,2.17
2019-05-09T12:38:49.911Z,2.30
2019-05-09T12:41:19.204Z,2.40
2019-05-09T12:43:48.373Z,2.83
2019-05-09T12:46:16.974Z,2.50
2019-05-09T12:48:47.960Z,2.70
2019-05-09T12:51:18.368Z,2.50
2019-05-09T12:53:48.459Z,2.50
2019-05-09T12:56:18.513Z,2.40
2019-05-09T12:58:47.704Z,2.30
2019-05-09T13:01:18.771Z,2.60
2019-05-09T13:03:48.415Z,2.00
2019-05-09T13:06:20.226Z,2.60
2019-05-09T13:08:48.098Z,2.40
2019-05-09T13:11:18.830Z,2.70
2019-05-09T13:13:48.010Z,2.20
2019-05-09T13:16:18.388Z,1.87
2019-05-09T13:19:05.181Z,1.77
2019-05-09T13:21:33.724Z,2.10
2019-05-09T13:24:02.703Z,1.50
2019-05-09T13:26:31.474Z,1.73
2019-05-09T13:29:00.133Z,1.63
2019-05-09T13:31:29.666Z,1.87
2019-05-09T13:33:58.654Z,2.43
2019-05-09T13:36:28.529Z,1.23
2019-05-09T13:39:04.223Z,1.60
2019-05-09T13:41:27.745Z,1.00
2019-05-09T13:43:59.330Z,1.73
2019-05-09T13:46:28.262Z,1.90
2019-05-09T13:49:09.937Z,1.80
2019-05-09T13:51:26.988Z,1.87
2019-05-09T13:53:58.596Z,1.67
2019-05-09T13:56:27.819Z,1.40
2019-05-09T13:58:58.139Z,1.47
2019-05-09T14:01:26.319Z,1.50
2019-05-09T14:03:57.445Z,1.50
2019-05-09T14:06:27.540Z,1.47
2019-05-09T14:08:55.346Z,1.60
2019-05-09T14:11:23.960Z,1.57
2019-05-09T14:13:52.492Z,2.00
2019-05-09T14:16:22.327Z,1.50
2019-05-09T14:18:51.106Z,1.50
2019-05-09T14:21:24.316Z,1.80
2019-05-09T14:24:03.270Z,1.60
2019-05-09T14:26:20.251Z,1.80
2019-05-09T14:28:49.118Z,1.67
2019-05-09T14:31:18.633Z,1.70
2019-05-09T14:33:47.785Z,1.20
2019-05-09T14:36:16.481Z,2.00
2019-05-09T14:38:45.109Z,1.60
2019-05-09T14:41:13.683Z,1.50
2019-05-09T14:43:42.204Z,2.00
2019-05-09T14:46:10.792Z,1.43
2019-05-09T14:48:39.462Z,1.83
2019-05-09T14:51:08.125Z,1.70
2019-05-09T14:53:38.925Z,1.40
2019-05-09T14:56:08.777Z,1.90
2019-05-09T14:58:38.830Z,1.73
2019-05-09T15:01:08.659Z,1.47
2019-05-09T15:03:38.871Z,1.63
2019-05-09T15:06:07.738Z,1.20
2019-05-09T15:08:38.263Z,1.27
2019-05-09T15:11:09.868Z,1.10
2019-05-09T15:13:36.915Z,1.40
2019-05-09T15:16:05.578Z,1.40
2019-05-09T15:18:34.124Z,1.30
2019-05-09T15:21:02.801Z,0.87
2019-05-09T15:23:31.421Z,1.10
2019-05-09T15:26:00.001Z,1.30
2019-05-09T15:28:29.275Z,0.97
2019-05-09T15:30:59.305Z,1.27
2019-05-09T15:33:28.142Z,1.23
2019-05-09T15:35:58.927Z,1.10
2019-05-09T15:38:29.066Z,1.73
2019-05-09T15:40:57.593Z,1.27
2019-05-09T15:43:26.512Z,1.63
2019-05-09T15:45:59.662Z,1.30
2019-05-09T15:48:28.249Z,1.17
2019-05-09T15:50:58.253Z,1.47
2019-05-09T15:53:27.858Z,1.20
2019-05-09T15:55:58.765Z,1.33
2019-05-09T15:58:29.962Z,1.23
2019-05-09T16:00:59.087Z,1.13
2019-05-09T16:03:28.001Z,1.20
2019-05-09T16:05:58.441Z,1.60
2019-05-09T16:08:28.712Z,1.40
2019-05-09T16:10:58.136Z,1.73
2019-05-09T16:13:28.451Z,1.20
2019-05-09T16:15:57.653Z,1.43
2019-05-09T16:18:28.615Z,1.40
2019-05-09T16:20:58.050Z,1.10
2019-05-09T16:23:28.955Z,1.27
2019-05-09T16:25:58.593Z,0.90
2019-05-09T16:28:27.454Z,2.00
2019-05-09T16:30:58.416Z,1.30
2019-05-09T16:33:27.901Z,0.80
2019-05-09T16:35:56.670Z,0.70
2019-05-09T16:38:39.623Z,0.70
2019-05-09T16:40:55.498Z,1.20
2019-05-09T16:43:24.084Z,0.83
2019-05-09T16:45:52.570Z,1.23
2019-05-09T16:48:21.199Z,1.23
2019-05-09T16:51:00.383Z,1.27
2019-05-09T16:53:20.033Z,1.03
2019-05-09T16:55:48.704Z,1.30
2019-05-09T16:58:18.549Z,1.30
2019-05-09T17:00:49.623Z,1.30
2019-05-09T17:03:18.256Z,1.13
2019-05-09T17:05:46.951Z,1.50
2019-05-09T17:08:17.771Z,1.20
2019-05-09T17:10:48.398Z,1.37
2019-05-09T17:13:18.470Z,0.87
2019-05-09T17:15:46.564Z,1.10
2019-05-09T17:18:15.160Z,1.20
2019-05-09T17:20:47.646Z,1.33
2019-05-09T17:23:20.235Z,1.77
2019-05-09T17:25:48.923Z,1.27
2019-05-09T17:28:17.961Z,1.57
2019-05-09T17:30:49.272Z,1.13
2019-05-09T17:33:19.142Z,1.20
2019-05-09T17:35:48.353Z,1.20
2019-05-09T17:38:18.082Z,1.30
2019-05-09T17:40:48.422Z,1.60
2019-05-09T17:43:19.457Z,1.07
2019-05-09T17:45:48.204Z,1.40
2019-05-09T17:48:21.451Z,1.10
2019-05-09T17:50:52.346Z,1.20
2019-05-09T17:53:20.965Z,1.00
2019-05-09T17:55:49.610Z,1.50
2019-05-09T17:58:29.777Z,0.90
2019-05-09T18:00:51.152Z,0.80
2019-05-09T18:03:19.848Z,1.23
2019-05-09T18:05:48.804Z,1.30
2019-05-09T18:08:18.822Z,1.07
2019-05-09T18:10:49.310Z,1.63
2019-05-09T18:13:23.710Z,2.00
2019-05-09T18:15:48.596Z,1.37
2019-05-09T18:18:18.572Z,1.63
2019-05-09T18:20:47.490Z,1.50
2019-05-09T18:23:17.648Z,1.33
2019-05-09T18:25:49.365Z,1.50
2019-05-09T18:28:18.111Z,1.47
2019-05-09T18:30:47.944Z,1.40
2019-05-09T18:33:18.417Z,2.07
2019-05-09T18:35:47.770Z,2.20
2019-05-09T18:38:25.343Z,2.30
2019-05-09T18:40:54.113Z,1.83
2019-05-09T18:43:24.328Z,1.57
2019-05-09T18:45:53.137Z,1.60
2019-05-09T18:48:21.842Z,1.50
2019-05-09T18:50:50.900Z,2.10
2019-05-09T18:53:21.719Z,1.77
2019-05-09T18:55:51.519Z,1.33
2019-05-09T18:58:20.163Z,1.73
2019-05-09T19:00:48.948Z,2.50
2019-05-09T19:03:17.669Z,2.13
2019-05-09T19:05:46.755Z,2.93
2019-05-09T19:08:15.462Z,2.60
2019-05-09T19:10:45.317Z,2.30
2019-05-09T19:13:13.927Z,2.43
2019-05-09T19:15:46.736Z,3.20
2019-05-09T19:18:18.392Z,2.40
2019-05-09T19:20:54.496Z,3.00
2019-05-09T19:23:23.145Z,2.80
2019-05-09T19:25:51.798Z,3.30
2019-05-09T19:28:23.839Z,3.10
2019-05-09T19:30:50.923Z,3.23
2019-05-09T19:33:19.608Z,3.20
2019-05-09T19:35:48.309Z,3.23
2019-05-09T19:38:17.603Z,3.37
2019-05-09T19:40:46.266Z,2.53
2019-05-09T19:43:15.069Z,3.13
2019-05-09T19:45:45.974Z,3.93
2019-05-09T19:48:14.727Z,3.10
2019-05-09T19:50:43.527Z,3.10
2019-05-09T19:53:13.845Z,3.27
2019-05-09T19:55:43.914Z,3.70
2019-05-09T19:58:12.573Z,3.00
2019-05-09T20:00:41.172Z,3.37
2019-05-09T20:03:09.814Z,2.83
2019-05-09T20:05:38.469Z,2.70
2019-05-09T20:08:07.213Z,3.77
2019-05-09T20:10:53.937Z,3.40
2019-05-09T20:13:26.997Z,3.63
2019-05-09T20:15:55.685Z,3.87
2019-05-09T20:18:24.958Z,3.40
2019-05-09T20:20:53.550Z,4.03
2019-05-09T20:23:22.185Z,3.97
2019-05-09T20:25:50.794Z,3.30
2019-05-09T20:28:21.307Z,4.40
2019-05-09T20:30:49.967Z,5.33
2019-05-09T20:33:18.648Z,4.37
2019-05-09T20:35:47.258Z,4.57
2019-05-09T20:38:16.190Z,4.50
2019-05-09T20:40:45.083Z,3.70
2019-05-09T20:43:13.920Z,6.10
2019-05-09T20:45:42.767Z,4.37
2019-05-09T20:48:11.569Z,4.47
2019-05-09T20:50:44.169Z,4.33
2019-05-09T20:53:10.831Z,3.57
2019-05-09T20:55:39.580Z,4.27
2019-05-09T20:58:08.363Z,4.40
2019-05-09T21:00:37.188Z,3.63
2019-05-09T21:03:08.470Z,3.90
2019-05-09T21:05:37.305Z,3.90
2019-05-09T21:08:08.803Z,4.00
2019-05-09T21:10:37.589Z,3.17
2019-05-09T21:13:06.716Z,3.70
2019-05-09T21:15:35.722Z,3.40
2019-05-09T21:18:04.821Z,3.40
2019-05-09T21:20:33.621Z,3.37
2019-05-09T21:23:05.251Z,4.17
2019-05-09T21:25:34.022Z,3.53
2019-05-09T21:28:02.811Z,3.73
2019-05-09T21:30:31.569Z,3.57
2019-05-09T21:33:00.324Z,3.43
2019-05-09T21:35:28.922Z,3.47
2019-05-09T21:37:57.505Z,3.70
2019-05-09T21:40:26.110Z,3.17
2019-05-09T21:42:54.657Z,3.43
2019-05-09T21:45:23.248Z,3.80
2019-05-09T21:47:51.756Z,3.87
2019-05-09T21:50:20.508Z,3.43
2019-05-09T21:52:49.049Z,2.93
2019-05-09T21:55:17.564Z,3.80
2019-05-09T21:57:46.578Z,3.27
2019-05-09T22:00:28.891Z,6.10
2019-05-09T22:02:57.493Z,3.77
2019-05-09T22:05:26.133Z,4.10
2019-05-09T22:07:54.868Z,3.50
2019-05-09T22:10:23.447Z,3.20
2019-05-09T22:12:52.067Z,3.63
2019-05-09T22:15:20.790Z,3.47
2019-05-09T22:17:49.281Z,3.20
2019-05-09T22:20:18.129Z,3.87
2019-05-09T22:22:46.699Z,3.17
2019-05-09T22:25:15.425Z,3.87
2019-05-09T22:27:43.984Z,3.77
2019-05-09T22:30:14.401Z,3.80
2019-05-09T22:32:43.522Z,3.60
2019-05-09T22:35:13.719Z,3.67
2019-05-09T22:37:42.327Z,4.20
2019-05-09T22:40:11.193Z,4.90
2019-05-09T22:42:39.776Z,3.70
2019-05-09T22:45:09.200Z,3.90
2019-05-09T22:47:37.776Z,3.90
2019-05-09T22:50:06.672Z,3.90
2019-05-09T22:52:35.228Z,3.80
2019-05-09T22:55:04.253Z,3.33
2019-05-09T22:57:32.813Z,4.10
2019-05-09T23:00:01.581Z,4.47
2019-05-09T23:02:30.392Z,4.10
2019-05-09T23:04:59.019Z,4.27
2019-05-09T23:07:27.637Z,4.90
2019-05-09T23:09:56.184Z,5.03
2019-05-09T23:12:24.770Z,4.43
2019-05-09T23:14:53.341Z,4.70
2019-05-09T23:17:21.837Z,3.77
2019-05-09T23:19:50.404Z,3.70
2019-05-09T23:22:22.083Z,4.77
2019-05-09T23:24:50.667Z,3.80
2019-05-09T23:27:20.152Z,3.93
2019-05-09T23:29:48.681Z,4.67
2019-05-09T23:32:33.895Z,4.10
2019-05-09T23:35:02.359Z,4.30
2019-05-09T23:37:30.854Z,6.60
2019-05-09T23:39:59.425Z,5.30
2019-05-09T23:42:28.001Z,4.60
2019-05-09T23:44:56.500Z,4.03
2019-05-09T23:47:25.068Z,4.37
2019-05-09T23:49:53.528Z,4.60
2019-05-09T23:52:22.099Z,5.03
2019-05-09T23:55:08.839Z,4.60
2019-05-09T23:57:55.441Z,4.33
